createdAt,value
2022-08-27T00:00:37.700Z,77.82
2022-08-27T00:03:09.088Z,77.67
2022-08-27T00:05:41.213Z,77.92
2022-08-27T00:08:13.569Z,77.69
2022-08-27T00:10:45.008Z,77.70
2022-08-27T00:13:16.505Z,77.70
2022-08-27T00:15:48.209Z,77.98
2022-08-27T00:18:22.803Z,78.01
2022-08-27T00:20:54.348Z,77.84
2022-08-27T00:23:25.762Z,77.79
2022-08-27T00:25:59.221Z,78.03
2022-08-27T00:28:31.927Z,77.74
2022-08-27T00:31:03.570Z,77.89
2022-08-27T00:33:36.753Z,78.00
2022-08-27T00:36:09.233Z,78.04
2022-08-27T00:38:41.835Z,77.73
2022-08-27T00:41:13.595Z,78.33
2022-08-27T00:43:58.255Z,78.01
2022-08-27T00:46:49.663Z,77.98
2022-08-27T00:49:26.392Z,78.44
2022-08-27T00:52:08.469Z,77.96
2022-08-27T00:54:39.841Z,77.97
2022-08-27T00:57:13.758Z,78.15
2022-08-27T00:59:45.464Z,77.94
2022-08-27T01:02:19.732Z,77.89
2022-08-27T01:04:56.120Z,77.74
2022-08-27T01:07:30.992Z,77.99
2022-08-27T01:10:07.152Z,77.75
2022-08-27T01:12:38.791Z,78.29
2022-08-27T01:15:16.917Z,77.91
2022-08-27T01:17:52.526Z,78.42
2022-08-27T01:20:48.989Z,78.40
2022-08-27T01:23:38.662Z,78.44
2022-08-27T01:26:14.648Z,78.27
2022-08-27T01:28:48.310Z,78.31
2022-08-27T01:31:20.223Z,77.82
2022-08-27T01:34:03.169Z,78.58
2022-08-27T01:36:34.540Z,77.99
2022-08-27T01:39:06.162Z,78.07
2022-08-27T01:41:37.543Z,78.37
2022-08-27T01:44:08.941Z,78.37
2022-08-27T01:46:40.579Z,78.83
2022-08-27T01:49:12.012Z,78.48
2022-08-27T01:51:43.636Z,78.73
2022-08-27T01:54:15.092Z,78.66
2022-08-27T01:56:46.685Z,78.67
2022-08-27T01:59:18.164Z,79.00
2022-08-27T02:01:50.315Z,78.87
2022-08-27T02:04:22.374Z,79.29
2022-08-27T02:06:54.578Z,79.35
2022-08-27T02:09:26.281Z,79.85
2022-08-27T02:11:57.900Z,79.76
2022-08-27T02:14:29.801Z,79.71
2022-08-27T02:17:01.650Z,79.84
2022-08-27T02:19:33.062Z,80.03
2022-08-27T02:22:04.553Z,80.02
2022-08-27T02:24:35.893Z,79.55
2022-08-27T02:27:07.876Z,79.61
2022-08-27T02:29:39.436Z,79.44
2022-08-27T02:32:23.879Z,79.81
2022-08-27T02:35:04.468Z,79.64
2022-08-27T02:37:37.884Z,80.17
2022-08-27T02:40:11.131Z,79.79
2022-08-27T02:42:43.792Z,80.54
2022-08-27T02:45:16.258Z,80.87
2022-08-27T02:47:48.470Z,81.10
2022-08-27T02:50:19.891Z,81.18
2022-08-27T02:52:51.264Z,81.67
2022-08-27T02:55:22.929Z,81.53
2022-08-27T02:57:54.864Z,81.72
2022-08-27T03:00:28.616Z,81.65
2022-08-27T03:03:01.133Z,82.20
2022-08-27T03:05:32.580Z,81.90
2022-08-27T03:08:05.518Z,82.67
2022-08-27T03:10:36.897Z,83.27
2022-08-27T03:13:09.021Z,83.16
2022-08-27T03:15:40.391Z,82.91
2022-08-27T03:18:21.531Z,83.30
2022-08-27T03:20:55.601Z,82.93
2022-08-27T03:23:29.470Z,83.13
2022-08-27T03:26:09.473Z,82.52
2022-08-27T03:28:40.945Z,82.88
2022-08-27T03:31:20.553Z,83.31
2022-08-27T03:33:56.696Z,83.44
2022-08-27T03:36:29.911Z,83.54
2022-08-27T03:39:01.374Z,83.43
2022-08-27T03:41:53.994Z,83.14
2022-08-27T03:44:24.414Z,83.89
2022-08-27T03:46:55.790Z,83.91
2022-08-27T03:49:27.117Z,84.51
2022-08-27T03:51:58.826Z,84.66
2022-08-27T03:54:31.673Z,84.45
2022-08-27T03:57:03.753Z,84.48
2022-08-27T03:59:35.915Z,84.65
2022-08-27T04:02:07.357Z,85.13
2022-08-27T04:04:38.953Z,84.74
2022-08-27T04:07:10.519Z,84.57
2022-08-27T04:09:42.427Z,84.92
2022-08-27T04:12:13.817Z,84.82
2022-08-27T04:14:45.372Z,84.86
2022-08-27T04:17:16.819Z,84.99
2022-08-27T04:19:48.325Z,85.30
2022-08-27T04:22:20.428Z,85.17
2022-08-27T04:24:51.782Z,85.34
2022-08-27T04:27:25.518Z,85.12
2022-08-27T04:29:58.393Z,85.20
2022-08-27T04:32:29.988Z,84.74
2022-08-27T04:35:01.516Z,85.12
2022-08-27T04:37:33.297Z,84.98
2022-08-27T04:40:05.036Z,84.97
2022-08-27T04:42:36.521Z,84.81
2022-08-27T04:45:08.486Z,85.21
2022-08-27T04:47:39.954Z,85.17
2022-08-27T04:50:11.351Z,85.11
2022-08-27T04:52:44.747Z,84.86
2022-08-27T04:55:16.199Z,84.88
2022-08-27T04:57:47.611Z,84.76
2022-08-27T05:00:19.248Z,84.86
2022-08-27T05:02:50.622Z,84.98
2022-08-27T05:05:23.635Z,85.00
2022-08-27T05:07:55.063Z,85.04
2022-08-27T05:10:26.427Z,84.77
2022-08-27T05:12:59.916Z,84.74
2022-08-27T05:15:31.576Z,84.37
2022-08-27T05:18:04.321Z,84.21
2022-08-27T05:20:46.670Z,84.29
2022-08-27T05:23:20.627Z,84.14
2022-08-27T05:25:53.865Z,84.07
2022-08-27T05:28:28.482Z,83.95
2022-08-27T05:31:06.824Z,84.12
2022-08-27T05:33:40.516Z,83.66
2022-08-27T05:36:21.654Z,83.49
2022-08-27T05:38:55.449Z,83.35
2022-08-27T05:41:34.240Z,83.54
2022-08-27T05:44:30.277Z,83.58
2022-08-27T05:47:00.755Z,83.55
2022-08-27T05:49:32.386Z,83.53
2022-08-27T05:52:08.218Z,83.59
2022-08-27T05:54:39.929Z,83.20
2022-08-27T05:57:11.446Z,83.15
2022-08-27T06:00:01.647Z,82.64
2022-08-27T06:02:37.146Z,82.76
2022-08-27T06:05:08.767Z,82.33
2022-08-27T06:07:40.185Z,82.87
2022-08-27T06:10:12.024Z,82.14
2022-08-27T06:12:43.395Z,82.66
2022-08-27T06:15:15.035Z,82.06
2022-08-27T06:17:46.374Z,81.45
2022-08-27T06:20:18.413Z,81.86
2022-08-27T06:22:49.893Z,81.34
2022-08-27T06:25:21.238Z,80.90
2022-08-27T06:27:52.640Z,81.38
2022-08-27T06:30:24.112Z,81.42
2022-08-27T06:32:55.562Z,80.70
2022-08-27T06:35:29.275Z,80.74
2022-08-27T06:38:02.555Z,80.73
2022-08-27T06:40:34.693Z,80.26
2022-08-27T06:43:06.279Z,79.84
2022-08-27T06:45:39.132Z,80.48
2022-08-27T06:48:10.616Z,79.94
2022-08-27T06:50:43.534Z,79.44
2022-08-27T06:53:15.058Z,79.28
2022-08-27T06:55:48.556Z,79.54
2022-08-27T06:58:20.258Z,79.43
2022-08-27T07:00:51.704Z,78.70
2022-08-27T07:03:23.103Z,79.24
2022-08-27T07:05:54.631Z,79.09
2022-08-27T07:08:26.098Z,78.87
2022-08-27T07:10:57.663Z,78.87
2022-08-27T07:13:30.076Z,78.41
2022-08-27T07:16:23.411Z,78.40
2022-08-27T07:18:59.457Z,78.70
2022-08-27T07:21:35.997Z,78.79
2022-08-27T07:24:09.001Z,78.31
2022-08-27T07:26:43.297Z,78.33
2022-08-27T07:29:15.258Z,78.54
2022-08-27T07:31:46.956Z,78.64
2022-08-27T07:34:18.314Z,78.38
2022-08-27T07:36:51.282Z,78.16
2022-08-27T07:39:22.607Z,78.28
2022-08-27T07:42:15.375Z,78.18
2022-08-27T07:44:46.784Z,78.40
2022-08-27T07:47:18.489Z,77.99
2022-08-27T07:49:50.149Z,77.40
2022-08-27T07:52:25.915Z,77.86
2022-08-27T07:54:58.289Z,77.06
2022-08-27T07:57:31.655Z,77.47
2022-08-27T08:00:04.800Z,77.89
2022-08-27T08:02:37.255Z,77.66
2022-08-27T08:05:09.969Z,77.38
2022-08-27T08:07:41.484Z,77.22
2022-08-27T08:10:12.992Z,77.43
2022-08-27T08:12:44.347Z,77.67
2022-08-27T08:15:17.313Z,77.40
2022-08-27T08:17:48.674Z,76.99
2022-08-27T08:20:31.256Z,76.74
2022-08-27T08:23:11.498Z,76.10
2022-08-27T08:25:42.965Z,75.95
2022-08-27T08:28:14.362Z,76.38
2022-08-27T08:30:47.631Z,75.89
2022-08-27T08:33:19.073Z,75.84
2022-08-27T08:35:50.553Z,75.14
2022-08-27T08:38:22.062Z,75.44
2022-08-27T08:40:55.276Z,75.01
2022-08-27T08:43:36.438Z,74.78
2022-08-27T08:46:17.186Z,74.57
2022-08-27T08:48:55.396Z,74.05
2022-08-27T08:51:32.726Z,73.91
2022-08-27T08:54:10.710Z,73.84
2022-08-27T08:57:01.093Z,73.85
2022-08-27T08:59:39.184Z,73.64
2022-08-27T09:02:14.534Z,74.03
2022-08-27T09:04:45.887Z,73.99
2022-08-27T09:07:34.456Z,73.69
2022-08-27T09:10:27.014Z,73.72
2022-08-27T09:13:07.998Z,73.69
2022-08-27T09:15:39.648Z,73.75
2022-08-27T09:18:14.749Z,73.74
2022-08-27T09:20:51.349Z,73.47
2022-08-27T09:23:31.016Z,73.56
2022-08-27T09:26:02.437Z,73.77
2022-08-27T09:28:52.604Z,73.79
2022-08-27T09:31:24.023Z,73.60
2022-08-27T09:33:57.219Z,73.89
2022-08-27T09:36:28.717Z,73.98
2022-08-27T09:39:04.223Z,74.00
2022-08-27T09:41:42.834Z,73.80
2022-08-27T09:44:18.624Z,74.16
2022-08-27T09:47:00.381Z,74.22
2022-08-27T09:49:36.593Z,73.94
2022-08-27T09:52:10.023Z,73.81
2022-08-27T09:54:46.498Z,73.85
2022-08-27T09:57:38.075Z,73.58
2022-08-27T10:00:16.131Z,73.61
2022-08-27T10:02:53.372Z,73.91
2022-08-27T10:05:32.160Z,73.86
2022-08-27T10:08:21.923Z,73.65
2022-08-27T10:11:00.756Z,73.34
2022-08-27T10:13:39.406Z,72.89
2022-08-27T10:16:52.350Z,72.92
2022-08-27T10:19:46.862Z,72.50
2022-08-27T10:22:31.903Z,72.83
2022-08-27T10:25:28.858Z,72.71
2022-08-27T10:28:36.756Z,72.58
2022-08-27T10:31:26.423Z,72.90
2022-08-27T10:34:21.030Z,72.66
2022-08-27T10:37:19.960Z,72.44
2022-08-27T10:40:04.472Z,72.82
2022-08-27T10:42:43.889Z,72.34
2022-08-27T10:45:39.344Z,71.92
2022-08-27T10:48:19.462Z,71.81
2022-08-27T10:51:08.887Z,72.06
2022-08-27T10:53:50.202Z,72.24
2022-08-27T10:57:03.637Z,71.68
2022-08-27T10:59:56.153Z,71.53
2022-08-27T11:02:37.266Z,71.40
2022-08-27T11:05:19.750Z,71.00
2022-08-27T11:08:05.149Z,70.99
2022-08-27T11:10:42.136Z,70.83
2022-08-27T11:13:22.148Z,70.54
2022-08-27T11:15:56.569Z,70.28
2022-08-27T11:18:42.426Z,70.25
2022-08-27T11:21:36.608Z,70.25
2022-08-27T11:24:33.103Z,69.99
2022-08-27T11:27:08.047Z,70.05
2022-08-27T11:29:49.562Z,70.23
2022-08-27T11:32:27.647Z,69.85
2022-08-27T11:35:19.778Z,69.86
2022-08-27T11:38:03.272Z,70.19
2022-08-27T11:40:55.435Z,70.06
2022-08-27T11:43:33.367Z,69.68
2022-08-27T11:46:08.529Z,69.46
2022-08-27T11:48:43.296Z,69.32
2022-08-27T11:51:34.052Z,68.42
2022-08-27T11:54:44.219Z,68.57
2022-08-27T11:57:39.177Z,68.72
2022-08-27T12:00:18.822Z,69.03
2022-08-27T12:02:58.970Z,68.35
2022-08-27T12:05:45.477Z,67.93
2022-08-27T12:08:22.737Z,67.33
2022-08-27T12:11:03.659Z,67.21
2022-08-27T12:13:50.540Z,66.69
2022-08-27T12:16:40.740Z,66.22
2022-08-27T12:19:33.177Z,65.32
2022-08-27T12:22:26.063Z,64.69
2022-08-27T12:24:59.000Z,64.77
2022-08-27T12:27:34.342Z,63.93
2022-08-27T12:30:21.030Z,63.07
2022-08-27T12:32:54.363Z,63.31
2022-08-27T12:35:32.569Z,62.48
2022-08-27T12:38:16.264Z,61.59
2022-08-27T12:40:53.947Z,61.53
2022-08-27T12:43:28.281Z,61.07
2022-08-27T12:46:19.231Z,59.96
2022-08-27T12:48:57.934Z,60.45
2022-08-27T12:51:37.981Z,59.69
2022-08-27T12:54:51.461Z,58.19
2022-08-27T12:57:36.767Z,58.71
2022-08-27T13:00:26.351Z,57.58
2022-08-27T13:03:16.642Z,57.18
2022-08-27T13:05:50.441Z,56.72
2022-08-27T13:08:28.300Z,56.86
2022-08-27T13:11:30.917Z,55.59
2022-08-27T13:14:19.868Z,55.63
2022-08-27T13:16:59.354Z,55.48
2022-08-27T13:19:34.190Z,55.51
2022-08-27T13:22:07.042Z,55.39
2022-08-27T13:24:47.844Z,55.24
2022-08-27T13:27:31.597Z,55.24
2022-08-27T13:30:10.946Z,54.21
2022-08-27T13:32:50.744Z,53.52
2022-08-27T13:35:23.072Z,53.29
2022-08-27T13:37:55.688Z,53.48
2022-08-27T13:40:34.435Z,52.72
2022-08-27T13:43:12.072Z,51.74
2022-08-27T13:45:49.576Z,51.95
2022-08-27T13:48:22.405Z,52.03
2022-08-27T13:50:57.576Z,51.70
2022-08-27T13:53:50.289Z,51.11
2022-08-27T13:56:27.614Z,51.09
2022-08-27T13:59:19.124Z,50.65
2022-08-27T14:02:10.969Z,50.69
2022-08-27T14:05:27.967Z,50.81
2022-08-27T14:08:13.731Z,51.24
2022-08-27T14:10:49.794Z,52.02
2022-08-27T14:13:24.016Z,51.81
2022-08-27T14:15:57.614Z,51.94
2022-08-27T14:18:57.237Z,51.90
2022-08-27T14:21:24.158Z,52.14
2022-08-27T14:23:56.176Z,52.34
2022-08-27T14:26:27.807Z,53.08
2022-08-27T14:28:59.221Z,52.56
2022-08-27T14:31:31.223Z,52.63
2022-08-27T14:34:02.732Z,53.07
2022-08-27T14:36:37.152Z,52.40
2022-08-27T14:39:10.190Z,52.17
2022-08-27T14:41:41.641Z,52.59
2022-08-27T14:44:13.404Z,52.32
2022-08-27T14:46:44.812Z,52.65
2022-08-27T14:49:30.469Z,53.07
2022-08-27T14:52:04.177Z,52.90
2022-08-27T14:54:37.212Z,53.63
2022-08-27T14:57:09.006Z,53.28
2022-08-27T14:59:40.399Z,53.76
2022-08-27T15:02:13.883Z,54.33
2022-08-27T15:04:47.842Z,54.49
2022-08-27T15:07:19.836Z,54.18
2022-08-27T15:09:55.327Z,53.50
2022-08-27T15:12:27.128Z,53.76
2022-08-27T15:14:58.631Z,53.96
2022-08-27T15:17:34.357Z,53.49
2022-08-27T15:20:10.265Z,53.71
2022-08-27T15:22:52.181Z,53.86
2022-08-27T15:25:23.601Z,54.34
2022-08-27T15:27:54.985Z,54.35
2022-08-27T15:30:28.833Z,54.43
2022-08-27T15:33:00.178Z,54.75
2022-08-27T15:35:31.617Z,54.25
2022-08-27T15:38:03.209Z,53.72
2022-08-27T15:40:36.357Z,54.49
2022-08-27T15:43:08.208Z,54.59
2022-08-27T15:45:39.558Z,54.00
2022-08-27T15:48:11.034Z,53.96
2022-08-27T15:50:43.118Z,53.59
2022-08-27T15:53:14.846Z,54.00
2022-08-27T15:55:46.179Z,54.48
2022-08-27T15:58:17.508Z,54.45
2022-08-27T16:00:48.956Z,54.45
2022-08-27T16:03:35.767Z,54.30
2022-08-27T16:06:08.787Z,54.45
2022-08-27T16:08:42.304Z,54.39
2022-08-27T16:11:14.056Z,55.24
2022-08-27T16:13:45.398Z,54.77
2022-08-27T16:16:22.579Z,54.98
2022-08-27T16:18:54.369Z,55.27
2022-08-27T16:21:25.706Z,54.99
2022-08-27T16:23:57.105Z,55.06
2022-08-27T16:26:28.661Z,55.27
2022-08-27T16:29:01.294Z,55.17
2022-08-27T16:31:34.815Z,55.44
2022-08-27T16:34:16.924Z,55.58
2022-08-27T16:36:48.322Z,55.69
2022-08-27T16:39:19.672Z,55.52
2022-08-27T16:41:51.246Z,55.65
2022-08-27T16:44:26.060Z,55.82
2022-08-27T16:46:57.613Z,55.22
2022-08-27T16:49:47.485Z,55.69
2022-08-27T16:52:23.456Z,55.73
2022-08-27T16:54:56.726Z,55.72
2022-08-27T16:57:28.104Z,55.30
2022-08-27T16:59:59.444Z,54.93
2022-08-27T17:02:34.811Z,55.07
2022-08-27T17:05:24.030Z,55.23
2022-08-27T17:07:59.386Z,55.37
2022-08-27T17:10:51.908Z,55.83
2022-08-27T17:13:28.261Z,55.57
2022-08-27T17:16:01.637Z,56.11
2022-08-27T17:18:34.788Z,56.19
2022-08-27T17:21:06.321Z,56.48
2022-08-27T17:23:41.211Z,56.86
2022-08-27T17:26:14.842Z,56.39
2022-08-27T17:28:46.280Z,56.46
2022-08-27T17:31:28.047Z,56.97
2022-08-27T17:34:01.219Z,56.74
2022-08-27T17:36:33.365Z,57.29
2022-08-27T17:39:04.746Z,57.30
2022-08-27T17:41:39.304Z,57.34
2022-08-27T17:44:31.904Z,57.73
2022-08-27T17:47:06.170Z,57.92
2022-08-27T17:49:37.972Z,57.79
2022-08-27T17:52:13.282Z,57.82
2022-08-27T17:54:48.001Z,58.27
2022-08-27T17:57:22.467Z,58.26
2022-08-27T17:59:54.663Z,58.81
2022-08-27T18:02:34.197Z,58.78
2022-08-27T18:05:09.929Z,59.00
2022-08-27T18:07:42.734Z,59.68
2022-08-27T18:10:17.507Z,59.74
2022-08-27T18:12:49.790Z,59.68
2022-08-27T18:15:25.261Z,60.07
2022-08-27T18:17:57.794Z,60.54
2022-08-27T18:20:30.629Z,60.75
2022-08-27T18:23:02.118Z,61.01
2022-08-27T18:25:36.334Z,60.91
2022-08-27T18:28:11.318Z,61.24
2022-08-27T18:30:44.622Z,61.31
2022-08-27T18:33:16.321Z,61.61
2022-08-27T18:35:47.689Z,61.85
2022-08-27T18:38:19.160Z,62.02
2022-08-27T18:40:51.777Z,62.38
2022-08-27T18:43:34.878Z,62.58
2022-08-27T18:46:07.083Z,62.62
2022-08-27T18:48:38.681Z,63.08
2022-08-27T18:51:13.935Z,63.21
2022-08-27T18:53:46.793Z,63.39
2022-08-27T18:56:19.561Z,63.96
2022-08-27T18:58:51.054Z,63.81
2022-08-27T19:01:26.278Z,64.04
2022-08-27T19:03:58.216Z,64.26
2022-08-27T19:06:29.937Z,64.31
2022-08-27T19:09:02.107Z,64.47
2022-08-27T19:11:33.474Z,64.43
2022-08-27T19:14:04.792Z,64.91
2022-08-27T19:16:45.851Z,65.10
2022-08-27T19:19:18.178Z,65.12
2022-08-27T19:21:51.699Z,65.09
2022-08-27T19:24:23.215Z,65.22
2022-08-27T19:26:54.891Z,65.75
2022-08-27T19:29:26.225Z,65.97
2022-08-27T19:34:28.999Z,66.38
2022-08-27T19:37:02.531Z,66.44
2022-08-27T19:39:36.527Z,66.77
2022-08-27T19:42:07.984Z,66.90
2022-08-27T19:44:39.474Z,66.99
2022-08-27T19:47:13.211Z,67.35
2022-08-27T19:49:49.589Z,67.52
2022-08-27T19:52:21.257Z,67.64
2022-08-27T19:55:12.518Z,67.93
2022-08-27T19:57:44.834Z,67.88
2022-08-27T20:00:19.326Z,68.01
2022-08-27T20:02:51.685Z,68.43
2022-08-27T20:05:23.211Z,68.47
2022-08-27T20:07:54.734Z,68.31
2022-08-27T20:10:36.725Z,68.63
2022-08-27T20:13:08.773Z,69.11
2022-08-27T20:15:40.666Z,69.11
2022-08-27T20:18:15.725Z,69.22
2022-08-27T20:20:47.218Z,69.42
2022-08-27T20:23:18.689Z,69.29
2022-08-27T20:25:52.230Z,69.54
2022-08-27T20:28:39.074Z,70.05
2022-08-27T20:31:11.495Z,69.15
2022-08-27T20:33:43.886Z,69.75
2022-08-27T20:36:15.578Z,70.00
2022-08-27T20:38:47.456Z,70.19
2022-08-27T20:41:19.092Z,70.03
2022-08-27T20:43:50.724Z,70.11
2022-08-27T20:46:27.093Z,70.72
2022-08-27T20:48:59.047Z,70.92
2022-08-27T20:51:30.498Z,70.81
2022-08-27T20:54:22.168Z,71.03
2022-08-27T20:56:53.863Z,71.18
2022-08-27T20:59:44.400Z,71.43
2022-08-27T21:02:22.189Z,71.20
2022-08-27T21:04:53.692Z,71.63
2022-08-27T21:07:25.283Z,71.93
2022-08-27T21:09:57.639Z,71.87
2022-08-27T21:12:30.895Z,72.18
2022-08-27T21:15:04.975Z,72.20
2022-08-27T21:17:36.645Z,72.21
2022-08-27T21:20:13.588Z,72.59
2022-08-27T21:22:45.076Z,72.43
2022-08-27T21:25:16.561Z,72.62
2022-08-27T21:27:47.940Z,73.12
2022-08-27T21:30:21.297Z,72.85
2022-08-27T21:32:56.358Z,72.88
2022-08-27T21:35:30.979Z,72.95
2022-08-27T21:38:02.428Z,73.19
2022-08-27T21:40:33.844Z,73.36
2022-08-27T21:43:05.267Z,73.49
2022-08-27T21:45:36.960Z,73.72
2022-08-27T21:48:08.641Z,73.36
2022-08-27T21:50:40.108Z,73.62
2022-08-27T21:53:11.614Z,73.22
2022-08-27T21:55:44.261Z,73.46
2022-08-27T21:58:15.746Z,73.89
2022-08-27T22:00:49.652Z,73.85
2022-08-27T22:03:22.664Z,74.11
2022-08-27T22:05:54.276Z,74.19
2022-08-27T22:08:26.345Z,74.27
2022-08-27T22:10:58.384Z,74.40
2022-08-27T22:13:29.938Z,74.44
2022-08-27T22:16:01.804Z,74.74
2022-08-27T22:18:33.760Z,74.22
2022-08-27T22:21:05.918Z,74.80
2022-08-27T22:23:37.447Z,75.41
2022-08-27T22:26:08.941Z,74.85
2022-08-27T22:28:40.588Z,74.88
2022-08-27T22:31:12.131Z,75.16
2022-08-27T22:33:43.639Z,75.46
2022-08-27T22:36:15.053Z,75.52
2022-08-27T22:38:46.600Z,75.31
2022-08-27T22:41:19.270Z,75.34
2022-08-27T22:43:56.681Z,75.61
2022-08-27T22:46:29.317Z,75.78
2022-08-27T22:49:01.028Z,75.67
2022-08-27T22:51:32.397Z,75.83
2022-08-27T22:54:03.894Z,75.81
2022-08-27T22:56:35.768Z,76.09
2022-08-27T22:59:07.544Z,75.90
2022-08-27T23:01:39.028Z,75.97
2022-08-27T23:04:11.183Z,76.27
2022-08-27T23:06:42.644Z,76.21
2022-08-27T23:09:14.047Z,76.41
2022-08-27T23:11:45.521Z,76.47
2022-08-27T23:14:16.987Z,76.60
2022-08-27T23:16:48.295Z,76.23
2022-08-27T23:19:19.830Z,76.94
2022-08-27T23:21:51.137Z,77.00
2022-08-27T23:24:22.515Z,77.10
2022-08-27T23:27:12.683Z,77.43
2022-08-27T23:29:46.991Z,77.39
2022-08-27T23:32:18.340Z,77.06
2022-08-27T23:34:49.899Z,77.55
2022-08-27T23:37:21.755Z,77.55
2022-08-27T23:39:53.863Z,77.83
2022-08-27T23:42:25.682Z,77.83
2022-08-27T23:44:57.304Z,78.01
2022-08-27T23:47:28.672Z,78.05
2022-08-27T23:50:00.488Z,77.96
2022-08-27T23:52:32.427Z,78.29
2022-08-27T23:55:05.207Z,78.30
2022-08-27T23:57:37.060Z,78.32
